sensor_id;sensor_type;location;lat;lon;timestamp;pressure;altitude;pressure_sealevel;temperature
71640;BMP280;60912;48.968;10.124;2022-12-07T00:00:46;96577.13;;;4.62
71640;BMP280;60912;48.968;10.124;2022-12-07T00:03:11;96574.69;;;4.53
71640;BMP280;60912;48.968;10.124;2022-12-07T00:05:37;96584.81;;;4.58
71640;BMP280;60912;48.968;10.124;2022-12-07T00:08:02;96580.41;;;4.55
71640;BMP280;60912;48.968;10.124;2022-12-07T00:10:27;96579.13;;;4.67
71640;BMP280;60912;48.968;10.124;2022-12-07T00:12:53;96583.28;;;4.74
71640;BMP280;60912;48.968;10.124;2022-12-07T00:15:18;96575.84;;;4.80
71640;BMP280;60912;48.968;10.124;2022-12-07T00:17:43;96568.88;;;4.84
71640;BMP280;60912;48.968;10.124;2022-12-07T00:20:09;96575.13;;;4.79
71640;BMP280;60912;48.968;10.124;2022-12-07T00:22:35;96574.38;;;4.79
71640;BMP280;60912;48.968;10.124;2022-12-07T00:25:00;96570.16;;;4.72
71640;BMP280;60912;48.968;10.124;2022-12-07T00:27:27;96570.41;;;4.69
71640;BMP280;60912;48.968;10.124;2022-12-07T00:29:52;96569.94;;;4.65
71640;BMP280;60912;48.968;10.124;2022-12-07T00:32:17;96572.91;;;4.67
71640;BMP280;60912;48.968;10.124;2022-12-07T00:34:43;96563.78;;;4.53
71640;BMP280;60912;48.968;10.124;2022-12-07T00:37:08;96558.31;;;4.47
71640;BMP280;60912;48.968;10.124;2022-12-07T00:39:33;96564.75;;;4.56
71640;BMP280;60912;48.968;10.124;2022-12-07T00:41:59;96560.56;;;4.55
71640;BMP280;60912;48.968;10.124;2022-12-07T00:44:24;96559.75;;;4.60
71640;BMP280;60912;48.968;10.124;2022-12-07T00:46:49;96564.47;;;4.65
71640;BMP280;60912;48.968;10.124;2022-12-07T00:49:15;96553.06;;;4.61
71640;BMP280;60912;48.968;10.124;2022-12-07T00:51:40;96568.69;;;4.71
71640;BMP280;60912;48.968;10.124;2022-12-07T00:54:06;96568.16;;;4.78
71640;BMP280;60912;48.968;10.124;2022-12-07T00:56:31;96558.47;;;4.83
71640;BMP280;60912;48.968;10.124;2022-12-07T00:59:02;96563.94;;;4.77
71640;BMP280;60912;48.968;10.124;2022-12-07T01:01:29;96560.75;;;4.62
71640;BMP280;60912;48.968;10.124;2022-12-07T01:03:55;96558.28;;;4.64
71640;BMP280;60912;48.968;10.124;2022-12-07T01:06:25;96564.97;;;4.69
71640;BMP280;60912;48.968;10.124;2022-12-07T01:08:50;96561.72;;;4.70
71640;BMP280;60912;48.968;10.124;2022-12-07T01:11:18;96567.94;;;4.71
71640;BMP280;60912;48.968;10.124;2022-12-07T01:13:44;96565.47;;;4.73
71640;BMP280;60912;48.968;10.124;2022-12-07T01:16:13;96570.91;;;4.73
71640;BMP280;60912;48.968;10.124;2022-12-07T01:18:39;96570.16;;;4.78
71640;BMP280;60912;48.968;10.124;2022-12-07T01:23:38;96570.91;;;4.73
71640;BMP280;60912;48.968;10.124;2022-12-07T01:26:06;96570.91;;;4.73
71640;BMP280;60912;48.968;10.124;2022-12-07T01:28:32;96573.66;;;4.67
71640;BMP280;60912;48.968;10.124;2022-12-07T01:31:00;96572.16;;;4.61
71640;BMP280;60912;48.968;10.124;2022-12-07T01:33:28;96566.47;;;4.59
71640;BMP280;60912;48.968;10.124;2022-12-07T01:36:04;96571.91;;;4.59
71640;BMP280;60912;48.968;10.124;2022-12-07T01:38:30;96579.13;;;4.67
71640;BMP280;60912;48.968;10.124;2022-12-07T01:40:56;96579.88;;;4.68
71640;BMP280;60912;48.968;10.124;2022-12-07T01:43:23;96572.16;;;4.72
71640;BMP280;60912;48.968;10.124;2022-12-07T01:45:49;96574.63;;;4.75
71640;BMP280;60912;48.968;10.124;2022-12-07T01:48:16;96567.94;;;4.71
71640;BMP280;60912;48.968;10.124;2022-12-07T01:50:45;96573.16;;;4.69
71640;BMP280;60912;48.968;10.124;2022-12-07T01:53:13;96575.16;;;4.68
71640;BMP280;60912;48.968;10.124;2022-12-07T01:55:42;96567.19;;;4.70
71640;BMP280;60912;48.968;10.124;2022-12-07T01:58:10;96563.97;;;4.61
71640;BMP280;60912;48.968;10.124;2022-12-07T02:00:36;96568.44;;;4.58
71640;BMP280;60912;48.968;10.124;2022-12-07T02:03:06;96566.22;;;4.57
71640;BMP280;60912;48.968;10.124;2022-12-07T02:05:34;96573.66;;;4.56
71640;BMP280;60912;48.968;10.124;2022-12-07T02:08:01;96575.88;;;4.58
71640;BMP280;60912;48.968;10.124;2022-12-07T02:10:29;96572.41;;;4.63
71640;BMP280;60912;48.968;10.124;2022-12-07T02:13:02;96579.88;;;4.68
71640;BMP280;60912;48.968;10.124;2022-12-07T02:22:18;96569.97;;;4.54
71640;BMP280;60912;48.968;10.124;2022-12-07T02:30:14;96568.75;;;4.55
71640;BMP280;60912;48.968;10.124;2022-12-07T02:35:46;96562.78;;;4.45
71640;BMP280;60912;48.968;10.124;2022-12-07T02:38:18;96563.50;;;4.45
71640;BMP280;60912;48.968;10.124;2022-12-07T02:40:53;96561.78;;;4.54
71640;BMP280;60912;48.968;10.124;2022-12-07T02:45:48;96566.47;;;4.59
71640;BMP280;60912;48.968;10.124;2022-12-07T02:48:17;96564.22;;;4.63
71640;BMP280;60912;48.968;10.124;2022-12-07T02:50:51;96569.69;;;4.57
71640;BMP280;60912;48.968;10.124;2022-12-07T02:56:03;96567.94;;;4.60
71640;BMP280;60912;48.968;10.124;2022-12-07T03:04:04;96558.06;;;4.51
71640;BMP280;60912;48.968;10.124;2022-12-07T03:06:42;96552.63;;;4.40
71640;BMP280;60912;48.968;10.124;2022-12-07T03:09:28;96552.38;;;4.27
71640;BMP280;60912;48.968;10.124;2022-12-07T03:12:06;96547.91;;;4.18
71640;BMP280;60912;48.968;10.124;2022-12-07T03:14:39;96552.63;;;4.23
71640;BMP280;60912;48.968;10.124;2022-12-07T03:17:11;96554.13;;;4.30
71640;BMP280;60912;48.968;10.124;2022-12-07T03:19:40;96554.38;;;4.32
71640;BMP280;60912;48.968;10.124;2022-12-07T03:22:09;96541.72;;;4.29
71640;BMP280;60912;48.968;10.124;2022-12-07T03:24:39;96542.22;;;4.27
71640;BMP280;60912;48.968;10.124;2022-12-07T03:27:09;96540.22;;;4.22
71640;BMP280;60912;48.968;10.124;2022-12-07T03:29:40;96541.00;;;4.12
71640;BMP280;60912;48.968;10.124;2022-12-07T03:32:12;96536.53;;;3.97
71640;BMP280;60912;48.968;10.124;2022-12-07T03:35:00;96532.31;;;3.85
71640;BMP280;60912;48.968;10.124;2022-12-07T03:37:34;96540.97;;;3.84
71640;BMP280;60912;48.968;10.124;2022-12-07T03:40:14;96530.09;;;3.78
71640;BMP280;60912;48.968;10.124;2022-12-07T03:42:42;96527.34;;;3.61
71640;BMP280;60912;48.968;10.124;2022-12-07T03:45:08;96525.59;;;3.53
71640;BMP280;60912;48.968;10.124;2022-12-07T03:47:45;96522.88;;;3.47
71640;BMP280;60912;48.968;10.124;2022-12-07T03:53:14;96516.38;;;3.28
71640;BMP280;60912;48.968;10.124;2022-12-07T03:55:42;96518.63;;;3.35
71640;BMP280;60912;48.968;10.124;2022-12-07T03:58:12;96529.78;;;3.48
71640;BMP280;60912;48.968;10.124;2022-12-07T04:00:38;96513.94;;;3.41
71640;BMP280;60912;48.968;10.124;2022-12-07T04:03:03;96509.75;;;3.40
71640;BMP280;60912;48.968;10.124;2022-12-07T04:05:29;96509.00;;;3.40
71640;BMP280;60912;48.968;10.124;2022-12-07T04:07:54;96509.19;;;3.30
71640;BMP280;60912;48.968;10.124;2022-12-07T04:10:20;96515.41;;;3.37
71640;BMP280;60912;48.968;10.124;2022-12-07T04:12:45;96513.94;;;3.41
71640;BMP280;60912;48.968;10.124;2022-12-07T04:15:11;96508.25;;;3.45
71640;BMP280;60912;48.968;10.124;2022-12-07T04:17:37;96499.78;;;3.31
71640;BMP280;60912;48.968;10.124;2022-12-07T04:20:03;96504.72;;;3.16
71640;BMP280;60912;48.968;10.124;2022-12-07T04:22:29;96501.50;;;3.18
71640;BMP280;60912;48.968;10.124;2022-12-07T04:24:54;96498.03;;;3.23
71640;BMP280;60912;48.968;10.124;2022-12-07T04:27:20;96493.38;;;3.29
71640;BMP280;60912;48.968;10.124;2022-12-07T04:29:45;96492.09;;;3.30
71640;BMP280;60912;48.968;10.124;2022-12-07T04:32:10;96492.38;;;3.26
71640;BMP280;60912;48.968;10.124;2022-12-07T04:34:36;96492.09;;;3.19
71640;BMP280;60912;48.968;10.124;2022-12-07T04:37:01;96489.38;;;3.19
71640;BMP280;60912;48.968;10.124;2022-12-07T04:39:27;96494.56;;;3.17
71640;BMP280;60912;48.968;10.124;2022-12-07T04:41:56;96498.00;;;3.06
71640;BMP280;60912;48.968;10.124;2022-12-07T04:44:23;96497.50;;;3.08
71640;BMP280;60912;48.968;10.124;2022-12-07T04:46:49;96494.06;;;3.24
71640;BMP280;60912;48.968;10.124;2022-12-07T04:49:16;96506.50;;;3.36
71640;BMP280;60912;48.968;10.124;2022-12-07T04:51:43;96499.31;;;3.55
71640;BMP280;60912;48.968;10.124;2022-12-07T04:54:09;96485.25;;;3.62
71640;BMP280;60912;48.968;10.124;2022-12-07T04:56:34;96490.94;;;3.64
71640;BMP280;60912;48.968;10.124;2022-12-07T04:59:00;96493.16;;;3.71
71640;BMP280;60912;48.968;10.124;2022-12-07T05:01:26;96494.88;;;3.80
71640;BMP280;60912;48.968;10.124;2022-12-07T05:03:52;96498.09;;;3.73
71640;BMP280;60912;48.968;10.124;2022-12-07T05:06:18;96492.66;;;3.73
71640;BMP280;60912;48.968;10.124;2022-12-07T05:08:43;96496.13;;;3.73
71640;BMP280;60912;48.968;10.124;2022-12-07T05:11:10;96494.41;;;3.70
71640;BMP280;60912;48.968;10.124;2022-12-07T05:13:59;96518.19;;;3.81
71640;BMP280;60912;48.968;10.124;2022-12-07T05:16:24;96518.22;;;3.92
71640;BMP280;60912;48.968;10.124;2022-12-07T05:18:50;96510.50;;;4.02
71640;BMP280;60912;48.968;10.124;2022-12-07T05:21:15;96505.81;;;4.02
71640;BMP280;60912;48.968;10.124;2022-12-07T05:23:40;96499.59;;;4.02
71640;BMP280;60912;48.968;10.124;2022-12-07T05:26:06;96509.75;;;4.07
71640;BMP280;60912;48.968;10.124;2022-12-07T05:28:31;96507.78;;;4.02
71640;BMP280;60912;48.968;10.124;2022-12-07T05:30:57;96503.06;;;4.08
71640;BMP280;60912;48.968;10.124;2022-12-07T05:33:22;96508.75;;;4.16
71640;BMP280;60912;48.968;10.124;2022-12-07T05:35:47;96508.28;;;4.12
71640;BMP280;60912;48.968;10.124;2022-12-07T05:38:13;96506.03;;;4.10
71640;BMP280;60912;48.968;10.124;2022-12-07T05:40:38;96506.53;;;4.03
71640;BMP280;60912;48.968;10.124;2022-12-07T05:43:03;96504.06;;;3.88
71640;BMP280;60912;48.968;10.124;2022-12-07T05:45:29;96503.81;;;3.81
71640;BMP280;60912;48.968;10.124;2022-12-07T05:47:54;96515.25;;;3.90
71640;BMP280;60912;48.968;10.124;2022-12-07T05:50:20;96517.44;;;4.03
71640;BMP280;60912;48.968;10.124;2022-12-07T05:52:46;96512.50;;;4.13
71640;BMP280;60912;48.968;10.124;2022-12-07T05:55:11;96515.19;;;4.07
71640;BMP280;60912;48.968;10.124;2022-12-07T05:57:37;96515.97;;;4.02
71640;BMP280;60912;48.968;10.124;2022-12-07T06:00:04;96513.22;;;3.96
71640;BMP280;60912;48.968;10.124;2022-12-07T06:02:29;96520.16;;;3.97
71640;BMP280;60912;48.968;10.124;2022-12-07T06:04:55;96531.09;;;4.03
71640;BMP280;60912;48.968;10.124;2022-12-07T06:07:20;96535.31;;;4.15
71640;BMP280;60912;48.968;10.124;2022-12-07T06:09:45;96523.38;;;4.07
71640;BMP280;60912;48.968;10.124;2022-12-07T06:12:12;96526.88;;;3.91
71640;BMP280;60912;48.968;10.124;2022-12-07T06:14:56;96522.41;;;3.88
71640;BMP280;60912;48.968;10.124;2022-12-07T06:17:21;96527.84;;;3.99
71640;BMP280;60912;48.968;10.124;2022-12-07T06:19:47;96526.59;;;4.05
71640;BMP280;60912;48.968;10.124;2022-12-07T06:22:12;96526.38;;;4.09
71640;BMP280;60912;48.968;10.124;2022-12-07T06:24:39;96522.41;;;4.10
71640;BMP280;60912;48.968;10.124;2022-12-07T06:27:04;96518.19;;;4.03
71640;BMP280;60912;48.968;10.124;2022-12-07T06:29:30;96527.88;;;3.88
71640;BMP280;60912;48.968;10.124;2022-12-07T06:31:56;96522.88;;;3.81
71640;BMP280;60912;48.968;10.124;2022-12-07T06:34:22;96533.28;;;3.82
71640;BMP280;60912;48.968;10.124;2022-12-07T06:36:49;96532.06;;;3.83
71640;BMP280;60912;48.968;10.124;2022-12-07T06:39:18;96525.63;;;3.75
71640;BMP280;60912;48.968;10.124;2022-12-07T06:41:43;96530.09;;;3.78
71640;BMP280;60912;48.968;10.124;2022-12-07T06:44:08;96538.50;;;3.80
71640;BMP280;60912;48.968;10.124;2022-12-07T06:46:34;96532.31;;;3.80
71640;BMP280;60912;48.968;10.124;2022-12-07T06:49:01;96532.31;;;3.80
71640;BMP280;60912;48.968;10.124;2022-12-07T06:51:26;96535.53;;;3.78
71640;BMP280;60912;48.968;10.124;2022-12-07T06:53:52;96534.03;;;3.77
71640;BMP280;60912;48.968;10.124;2022-12-07T06:56:17;96519.19;;;3.67
71640;BMP280;60912;48.968;10.124;2022-12-07T06:58:43;96512.47;;;3.57
71640;BMP280;60912;48.968;10.124;2022-12-07T07:01:12;96524.13;;;3.63
71640;BMP280;60912;48.968;10.124;2022-12-07T07:03:38;96527.59;;;3.69
71640;BMP280;60912;48.968;10.124;2022-12-07T07:06:05;96529.34;;;3.78
71640;BMP280;60912;48.968;10.124;2022-12-07T07:08:30;96540.25;;;3.83
71640;BMP280;60912;48.968;10.124;2022-12-07T07:10:56;96540.25;;;3.89
71640;BMP280;60912;48.968;10.124;2022-12-07T07:13:21;96531.59;;;3.90
71640;BMP280;60912;48.968;10.124;2022-12-07T07:15:46;96539.50;;;3.94
71640;BMP280;60912;48.968;10.124;2022-12-07T07:18:12;96531.56;;;4.01
71640;BMP280;60912;48.968;10.124;2022-12-07T07:20:37;96540.75;;;4.04
71640;BMP280;60912;48.968;10.124;2022-12-07T07:23:03;96536.53;;;4.03
71640;BMP280;60912;48.968;10.124;2022-12-07T07:25:29;96550.16;;;3.97
71640;BMP280;60912;48.968;10.124;2022-12-07T07:27:54;96543.47;;;3.93
71640;BMP280;60912;48.968;10.124;2022-12-07T07:30:20;96547.94;;;4.07
71640;BMP280;60912;48.968;10.124;2022-12-07T07:32:45;96546.94;;;4.21
71640;BMP280;60912;48.968;10.124;2022-12-07T07:35:11;96559.81;;;4.26
71640;BMP280;60912;48.968;10.124;2022-12-07T07:37:36;96552.88;;;4.20
71640;BMP280;60912;48.968;10.124;2022-12-07T07:40:02;96559.84;;;4.15
71640;BMP280;60912;48.968;10.124;2022-12-07T07:42:27;96552.38;;;4.16
71640;BMP280;60912;48.968;10.124;2022-12-07T07:44:52;96553.88;;;4.11
71640;BMP280;60912;48.968;10.124;2022-12-07T07:47:18;96548.69;;;4.13
71640;BMP280;60912;48.968;10.124;2022-12-07T07:49:43;96564.53;;;4.09
71640;BMP280;60912;48.968;10.124;2022-12-07T07:52:12;96564.78;;;4.17
71640;BMP280;60912;48.968;10.124;2022-12-07T07:54:38;96552.66;;;4.18
71640;BMP280;60912;48.968;10.124;2022-12-07T07:57:03;96555.88;;;4.10
71640;BMP280;60912;48.968;10.124;2022-12-07T07:59:28;96553.66;;;4.03
71640;BMP280;60912;48.968;10.124;2022-12-07T08:01:54;96548.41;;;4.17
71640;BMP280;60912;48.968;10.124;2022-12-07T08:04:20;96552.63;;;4.23
71640;BMP280;60912;48.968;10.124;2022-12-07T08:06:45;96548.16;;;4.31
71640;BMP280;60912;48.968;10.124;2022-12-07T08:09:13;96553.09;;;4.49
71640;BMP280;60912;48.968;10.124;2022-12-07T08:11:39;96563.47;;;4.57
71640;BMP280;60912;48.968;10.124;2022-12-07T08:14:04;96558.03;;;4.57
71640;BMP280;60912;48.968;10.124;2022-12-07T08:16:29;96554.34;;;4.37
71640;BMP280;60912;48.968;10.124;2022-12-07T08:18:55;96557.06;;;4.37
71640;BMP280;60912;48.968;10.124;2022-12-07T08:21:21;96551.63;;;4.37
71640;BMP280;60912;48.968;10.124;2022-12-07T08:23:46;96561.78;;;4.54
71640;BMP280;60912;48.968;10.124;2022-12-07T08:26:14;96560.75;;;4.68
71640;BMP280;60912;48.968;10.124;2022-12-07T08:28:40;96560.97;;;4.70
71640;BMP280;60912;48.968;10.124;2022-12-07T08:31:12;96567.22;;;4.65
71640;BMP280;60912;48.968;10.124;2022-12-07T08:33:37;96562.28;;;4.41
71640;BMP280;60912;48.968;10.124;2022-12-07T08:36:05;96562.81;;;4.34
71640;BMP280;60912;48.968;10.124;2022-12-07T08:38:31;96560.09;;;4.28
71640;BMP280;60912;48.968;10.124;2022-12-07T08:40:58;96566.00;;;4.32
71640;BMP280;60912;48.968;10.124;2022-12-07T08:43:23;96567.50;;;4.33
71640;BMP280;60912;48.968;10.124;2022-12-07T08:46:11;96568.69;;;4.60
71640;BMP280;60912;48.968;10.124;2022-12-07T08:48:42;96574.09;;;4.82
71640;BMP280;60912;48.968;10.124;2022-12-07T08:51:10;96570.81;;;4.95
71640;BMP280;60912;48.968;10.124;2022-12-07T08:53:36;96572.81;;;5.00
71640;BMP280;60912;48.968;10.124;2022-12-07T08:56:03;96574.38;;;4.79
71640;BMP280;60912;48.968;10.124;2022-12-07T08:58:29;96574.88;;;4.72
71640;BMP280;60912;48.968;10.124;2022-12-07T09:00:58;96583.28;;;4.74
71640;BMP280;60912;48.968;10.124;2022-12-07T09:03:23;96578.34;;;4.78
71640;BMP280;60912;48.968;10.124;2022-12-07T09:05:49;96579.31;;;4.75
71640;BMP280;60912;48.968;10.124;2022-12-07T09:08:15;96580.84;;;4.65
71640;BMP280;60912;48.968;10.124;2022-12-07T09:10:40;96576.16;;;4.37
71640;BMP280;60912;48.968;10.124;2022-12-07T09:13:08;96574.94;;;4.33
71640;BMP280;60912;48.968;10.124;2022-12-07T09:15:34;96572.22;;;4.49
71640;BMP280;60912;48.968;10.124;2022-12-07T09:17:59;96567.00;;;4.52
71640;BMP280;60912;48.968;10.124;2022-12-07T09:20:24;96572.66;;;4.70
71640;BMP280;60912;48.968;10.124;2022-12-07T09:22:50;96573.34;;;4.93
71640;BMP280;60912;48.968;10.124;2022-12-07T09:25:15;96564.38;;;4.93
71640;BMP280;60912;48.968;10.124;2022-12-07T09:27:47;96568.34;;;4.97
71640;BMP280;60912;48.968;10.124;2022-12-07T09:30:13;96556.38;;;5.11
71640;BMP280;60912;48.968;10.124;2022-12-07T09:32:38;96560.78;;;5.25
71640;BMP280;60912;48.968;10.124;2022-12-07T09:35:04;96562.97;;;5.38
71640;BMP280;60912;48.968;10.124;2022-12-07T09:37:29;96559.53;;;5.26
71640;BMP280;60912;48.968;10.124;2022-12-07T09:39:56;96561.00;;;5.27
71640;BMP280;60912;48.968;10.124;2022-12-07T09:44:53;96561.28;;;5.24
71640;BMP280;60912;48.968;10.124;2022-12-07T09:47:18;96552.78;;;5.39
71640;BMP280;60912;48.968;10.124;2022-12-07T09:49:44;96562.13;;;5.54
71640;BMP280;60912;48.968;10.124;2022-12-07T09:54:46;96557.63;;;5.57
71640;BMP280;60912;48.968;10.124;2022-12-07T09:57:12;96554.25;;;5.40
71640;BMP280;60912;48.968;10.124;2022-12-07T09:59:38;96559.72;;;5.40
71640;BMP280;60912;48.968;10.124;2022-12-07T10:02:39;96556.75;;;5.38
71640;BMP280;60912;48.968;10.124;2022-12-07T10:05:10;96553.84;;;5.60
71640;BMP280;60912;48.968;10.124;2022-12-07T10:07:37;96548.72;;;5.51
71640;BMP280;60912;48.968;10.124;2022-12-07T10:10:09;96544.16;;;5.59
71640;BMP280;60912;48.968;10.124;2022-12-07T10:12:58;96542.84;;;5.71
71640;BMP280;60912;48.968;10.124;2022-12-07T10:18:21;96539.53;;;5.48
71640;BMP280;60912;48.968;10.124;2022-12-07T10:21:03;96536.16;;;5.72
71640;BMP280;60912;48.968;10.124;2022-12-07T10:23:29;96535.72;;;5.62
71640;BMP280;60912;48.968;10.124;2022-12-07T10:25:55;96534.84;;;5.43
71640;BMP280;60912;48.968;10.124;2022-12-07T10:28:21;96528.34;;;5.52
71640;BMP280;60912;48.968;10.124;2022-12-07T10:33:29;96525.28;;;5.25
71640;BMP280;60912;48.968;10.124;2022-12-07T10:35:56;96521.78;;;5.60
71640;BMP280;60912;48.968;10.124;2022-12-07T10:38:26;96518.41;;;5.84
71640;BMP280;60912;48.968;10.124;2022-12-07T10:41:12;96515.94;;;6.11
71640;BMP280;60912;48.968;10.124;2022-12-07T10:43:46;96508.28;;;6.03
71640;BMP280;60912;48.968;10.124;2022-12-07T10:49:28;96506.59;;;6.25
71640;BMP280;60912;48.968;10.124;2022-12-07T11:00:22;96507.31;;;6.50
71640;BMP280;60912;48.968;10.124;2022-12-07T11:06:00;96495.19;;;6.45
71640;BMP280;60912;48.968;10.124;2022-12-07T11:08:43;96504.91;;;5.92
71640;BMP280;60912;48.968;10.124;2022-12-07T11:19:27;96481.97;;;6.25
71640;BMP280;60912;48.968;10.124;2022-12-07T11:21:58;96486.41;;;6.28
71640;BMP280;60912;48.968;10.124;2022-12-07T11:27:21;96481.94;;;6.49
71640;BMP280;60912;48.968;10.124;2022-12-07T11:37:49;96470.22;;;6.30
71640;BMP280;60912;48.968;10.124;2022-12-07T11:40:33;96476.84;;;6.59
71640;BMP280;60912;48.968;10.124;2022-12-07T11:43:25;96474.38;;;6.79
71640;BMP280;60912;48.968;10.124;2022-12-07T11:46:12;96472.00;;;6.70
71640;BMP280;60912;48.968;10.124;2022-12-07T11:48:52;96472.63;;;6.58
71640;BMP280;60912;48.968;10.124;2022-12-07T11:51:21;96469.75;;;6.50
71640;BMP280;60912;48.968;10.124;2022-12-07T11:53:58;96473.31;;;6.64
71640;BMP280;60912;48.968;10.124;2022-12-07T11:56:27;96475.13;;;6.80
71640;BMP280;60912;48.968;10.124;2022-12-07T11:58:57;96467.91;;;6.77
71640;BMP280;60912;48.968;10.124;2022-12-07T12:04:32;96468.03;;;6.47
71640;BMP280;60912;48.968;10.124;2022-12-07T12:06:59;96469.41;;;6.35
71640;BMP280;60912;48.968;10.124;2022-12-07T12:09:41;96466.44;;;6.33
71640;BMP280;60912;48.968;10.124;2022-12-07T12:12:31;96453.34;;;6.26
71640;BMP280;60912;48.968;10.124;2022-12-07T12:21:08;96449.69;;;6.42
71640;BMP280;60912;48.968;10.124;2022-12-07T12:23:40;96445.63;;;6.48
71640;BMP280;60912;48.968;10.124;2022-12-07T12:26:13;96442.78;;;6.35
71640;BMP280;60912;48.968;10.124;2022-12-07T12:31:15;96437.16;;;6.28
71640;BMP280;60912;48.968;10.124;2022-12-07T12:33:56;96440.84;;;6.30
71640;BMP280;60912;48.968;10.124;2022-12-07T12:51:55;96428.78;;;5.96
71640;BMP280;60912;48.968;10.124;2022-12-07T12:54:30;96429.75;;;6.23
71640;BMP280;60912;48.968;10.124;2022-12-07T12:57:09;96419.91;;;6.14
71640;BMP280;60912;48.968;10.124;2022-12-07T13:04:52;96419.09;;;6.19
71640;BMP280;60912;48.968;10.124;2022-12-07T13:26:34;96410.53;;;6.28
71640;BMP280;60912;48.968;10.124;2022-12-07T13:34:35;96405.59;;;6.02
71640;BMP280;60912;48.968;10.124;2022-12-07T13:39:33;96397.84;;;5.82
71640;BMP280;60912;48.968;10.124;2022-12-07T13:42:07;96401.25;;;5.64
71640;BMP280;60912;48.968;10.124;2022-12-07T13:44:40;96405.00;;;5.61
71640;BMP280;60912;48.968;10.124;2022-12-07T13:47:15;96397.28;;;5.65
71640;BMP280;60912;48.968;10.124;2022-12-07T13:49:51;96396.78;;;5.66
71640;BMP280;60912;48.968;10.124;2022-12-07T13:52:18;96401.03;;;5.62
71640;BMP280;60912;48.968;10.124;2022-12-07T13:54:55;96396.72;;;5.72
71640;BMP280;60912;48.968;10.124;2022-12-07T13:57:22;96394.81;;;5.61
71640;BMP280;60912;48.968;10.124;2022-12-07T13:59:51;96399.13;;;5.51
71640;BMP280;60912;48.968;10.124;2022-12-07T14:05:05;96403.09;;;5.56
71640;BMP280;60912;48.968;10.124;2022-12-07T14:07:33;96403.75;;;5.62
71640;BMP280;60912;48.968;10.124;2022-12-07T14:10:02;96398.03;;;5.60
71640;BMP280;60912;48.968;10.124;2022-12-07T14:12:31;96401.75;;;5.62
71640;BMP280;60912;48.968;10.124;2022-12-07T14:14:58;96397.31;;;5.59
71640;BMP280;60912;48.968;10.124;2022-12-07T14:17:26;96404.47;;;5.68
71640;BMP280;60912;48.968;10.124;2022-12-07T14:19:59;96399.50;;;5.66
71640;BMP280;60912;48.968;10.124;2022-12-07T14:22:34;96409.06;;;5.79
71640;BMP280;60912;48.968;10.124;2022-12-07T14:25:18;96405.97;;;5.88
71640;BMP280;60912;48.968;10.124;2022-12-07T14:27:55;96405.41;;;5.95
71640;BMP280;60912;48.968;10.124;2022-12-07T14:30:25;96401.16;;;5.99
71640;BMP280;60912;48.968;10.124;2022-12-07T14:32:54;96397.28;;;5.89
71640;BMP280;60912;48.968;10.124;2022-12-07T14:35:20;96402.47;;;5.93
71640;BMP280;60912;48.968;10.124;2022-12-07T14:37:47;96397.06;;;5.87
71640;BMP280;60912;48.968;10.124;2022-12-07T14:40:16;96396.69;;;5.96
71640;BMP280;60912;48.968;10.124;2022-12-07T14:42:43;96398.66;;;6.01
71640;BMP280;60912;48.968;10.124;2022-12-07T14:45:17;96395.94;;;6.01
71640;BMP280;60912;48.968;10.124;2022-12-07T14:47:45;96395.22;;;5.95
71640;BMP280;60912;48.968;10.124;2022-12-07T14:50:18;96398.19;;;5.97
71640;BMP280;60912;48.968;10.124;2022-12-07T14:52:58;96398.88;;;6.03
71640;BMP280;60912;48.968;10.124;2022-12-07T14:55:27;96392.72;;;5.97
71640;BMP280;60912;48.968;10.124;2022-12-07T14:57:59;96393.28;;;5.90
71640;BMP280;60912;48.968;10.124;2022-12-07T15:00:27;96399.66;;;5.98
71640;BMP280;60912;48.968;10.124;2022-12-07T15:02:59;96395.97;;;5.96
71640;BMP280;60912;48.968;10.124;2022-12-07T15:05:24;96393.84;;;5.83
71640;BMP280;60912;48.968;10.124;2022-12-07T15:07:52;96384.50;;;5.73
71640;BMP280;60912;48.968;10.124;2022-12-07T15:10:21;96386.72;;;5.75
71640;BMP280;60912;48.968;10.124;2022-12-07T15:12:47;96395.22;;;5.71
71640;BMP280;60912;48.968;10.124;2022-12-07T15:15:13;96396.72;;;5.72
71640;BMP280;60912;48.968;10.124;2022-12-07T15:17:39;96388.06;;;5.68
71640;BMP280;60912;48.968;10.124;2022-12-07T15:20:16;96389.81;;;5.65
71640;BMP280;60912;48.968;10.124;2022-12-07T15:22:42;96384.13;;;5.58
71640;BMP280;60912;48.968;10.124;2022-12-07T15:25:09;96386.69;;;5.56
71640;BMP280;60912;48.968;10.124;2022-12-07T15:27:46;96387.13;;;5.60
71640;BMP280;60912;48.968;10.124;2022-12-07T15:30:12;96385.72;;;5.53
71640;BMP280;60912;48.968;10.124;2022-12-07T15:32:37;96387.44;;;5.56
71640;BMP280;60912;48.968;10.124;2022-12-07T15:35:03;96387.13;;;5.60
71640;BMP280;60912;48.968;10.124;2022-12-07T15:37:32;96385.41;;;5.57
71640;BMP280;60912;48.968;10.124;2022-12-07T15:39:57;96381.72;;;5.54
71640;BMP280;60912;48.968;10.124;2022-12-07T15:42:22;96387.69;;;5.53
71640;BMP280;60912;48.968;10.124;2022-12-07T15:44:51;96390.44;;;5.53
71640;BMP280;60912;48.968;10.124;2022-12-07T15:50:02;96372.44;;;5.39
71640;BMP280;60912;48.968;10.124;2022-12-07T15:52:29;96375.47;;;5.30
71640;BMP280;60912;48.968;10.124;2022-12-07T15:54:54;96367.47;;;5.32
71640;BMP280;60912;48.968;10.124;2022-12-07T15:57:20;96369.06;;;5.21
71640;BMP280;60912;48.968;10.124;2022-12-07T15:59:45;96372.78;;;5.24
71640;BMP280;60912;48.968;10.124;2022-12-07T16:02:11;96375.03;;;5.25
71640;BMP280;60912;48.968;10.124;2022-12-07T16:04:36;96365.78;;;5.28
71640;BMP280;60912;48.968;10.124;2022-12-07T16:07:02;96365.22;;;5.36
71640;BMP280;60912;48.968;10.124;2022-12-07T16:09:28;96365.00;;;5.34
71640;BMP280;60912;48.968;10.124;2022-12-07T16:11:54;96368.97;;;5.33
71640;BMP280;60912;48.968;10.124;2022-12-07T16:14:23;96361.13;;;5.23
71640;BMP280;60912;48.968;10.124;2022-12-07T16:16:49;96362.03;;;5.32
71640;BMP280;60912;48.968;10.124;2022-12-07T16:19:15;96359.41;;;5.20
71640;BMP280;60912;48.968;10.124;2022-12-07T16:21:41;96351.94;;;5.21
71640;BMP280;60912;48.968;10.124;2022-12-07T16:24:08;96345.00;;;5.20
71640;BMP280;60912;48.968;10.124;2022-12-07T16:26:35;96356.09;;;5.27
71640;BMP280;60912;48.968;10.124;2022-12-07T16:29:01;96358.16;;;5.21
71640;BMP280;60912;48.968;10.124;2022-12-07T16:31:27;96354.16;;;5.22
71640;BMP280;60912;48.968;10.124;2022-12-07T16:33:54;96350.25;;;5.12
71640;BMP280;60912;48.968;10.124;2022-12-07T16:36:21;96353.78;;;5.07